Time;durP1;ratioP1;P1;durP2;ratioP2;P2;SDS_P1;SDS_P2;PMS_P1;PMS_P2;Temp;Humidity;BMP_temperature;BMP_pressure;BME280_temperature;BME280_humidity;BME280_pressure;Samples;Min_cycle;Max_cycle;Signal;HPM_P1;HPM_P2
2021/11/17 02:29:09;;;;;;;;;;;5.40;99.90;;;;;;4351949;54;19942;-76
2021/11/17 02:33:13;;;;;;;;;;;5.40;99.90;;;;;;4352285;39;20626;-75
2021/11/17 02:37:18;;;;;;;;;;;5.40;99.90;;;;;;4351995;47;19943;-75
2021/11/17 02:41:40;;;;;;;;;;;5.60;99.90;;;;;;4351674;47;19938;-75
2021/11/17 02:45:42;;;;;;;;;;;5.30;99.90;;;;;;4352394;39;20210;-75
2021/11/17 02:49:47;;;;;;;;;;;5.00;99.90;;;;;;4351710;54;19943;-76
2021/11/17 02:54:07;;;;;;;;;;;5.70;99.90;;;;;;4351919;54;19942;-75
2021/11/17 02:58:35;;;;;;;;;;;5.50;99.90;;;;;;4352146;54;19943;-76
2021/11/17 03:02:52;;;;;;;;;;;5.70;99.90;;;;;;4351804;47;19969;-76
2021/11/17 03:06:55;;;;;;;;;;;5.80;99.90;;;;;;4351983;54;19998;-76
2021/11/17 03:11:21;;;;;;;;;;;5.70;99.90;;;;;;4351783;54;19968;-75
2021/11/17 03:15:41;;;;;;;;;;;5.60;99.90;;;;;;4351536;54;19942;-76
2021/11/17 03:19:49;;;;;;;;;;;5.90;99.90;;;;;;4351749;54;19927;-75
2021/11/17 03:23:57;;;;;;;;;;;5.60;99.90;;;;;;4354857;39;20634;-76
2021/11/17 03:28:20;;;;;;;;;;;5.50;99.90;;;;;;4351939;46;19990;-76
2021/11/17 03:32:25;;;;;;;;;;;5.60;99.90;;;;;;4351314;47;19963;-76
2021/11/17 03:36:45;;;;;;;;;;;6.60;99.90;;;;;;4354326;39;20207;-76
2021/11/17 03:40:59;;;;;;;;;;;5.60;99.90;;;;;;4351918;54;19956;-75
2021/11/17 03:45:33;;;;;;;;;;;5.70;99.90;;;;;;4351973;46;19938;-76
2021/11/17 03:49:35;;;;;;;;;;;5.70;99.90;;;;;;4351876;47;19947;-76
2021/11/17 03:53:43;;;;;;;;;;;7.50;99.90;;;;;;4351912;54;19942;-76
2021/11/17 03:57:51;;;;;;;;;;;5.60;99.90;;;;;;4351722;54;19970;-75
2021/11/17 04:02:02;;;;;;;;;;;5.60;99.90;;;;;;4351776;54;19977;-75
2021/11/17 04:06:13;;;;;;;;;;;5.70;99.90;;;;;;4351612;54;19974;-76
2021/11/17 04:10:33;;;;;;;;;;;6.00;99.90;;;;;;4351899;39;21193;-76
2021/11/17 04:14:38;;;;;;;;;;;5.60;99.90;;;;;;4351517;54;19966;-77
2021/11/17 04:19:03;;;;;;;;;;;5.80;99.90;;;;;;4358015;39;20581;-75
2021/11/17 04:23:23;;;;;;;;;;;5.70;99.90;;;;;;4351480;47;19946;-76
2021/11/17 04:27:44;;;;;;;;;;;4.10;99.90;;;;;;4351298;47;19946;-76
2021/11/17 04:31:46;;;;;;;;;;;5.60;99.90;;;;;;4351311;54;19942;-75
2021/11/17 04:36:27;;;;;;;;;;;5.90;99.90;;;;;;4351367;54;19968;-75
2021/11/17 04:41:05;;;;;;;;;;;5.70;99.90;;;;;;4351001;54;19942;-75
2021/11/17 04:45:07;;;;;;;;;;;5.80;99.90;;;;;;4351104;54;19945;-75
2021/11/17 04:49:21;;;;;;;;;;;5.90;99.90;;;;;;4351100;54;19986;-76
2021/11/17 04:53:22;;;;;;;;;;;5.70;99.90;;;;;;4350890;47;19930;-76
2021/11/17 04:57:35;;;;;;;;;;;5.70;99.90;;;;;;4350938;47;19939;-76
2021/11/17 05:01:55;;;;;;;;;;;5.90;99.90;;;;;;4350908;47;19931;-76
2021/11/17 05:06:04;;;;;;;;;;;5.80;99.90;;;;;;4351091;54;19950;-75
2021/11/17 05:10:06;;;;;;;;;;;5.70;99.90;;;;;;4350879;54;19939;-75
2021/11/17 05:14:13;;;;;;;;;;;5.60;99.90;;;;;;4350642;54;19926;-75
2021/11/17 05:18:24;;;;;;;;;;;6.20;99.90;;;;;;4356079;39;20594;-75
2021/11/17 05:22:35;;;;;;;;;;;5.70;99.90;;;;;;4351019;54;19950;-76
2021/11/17 05:26:37;;;;;;;;;;;7.60;99.90;;;;;;4351199;47;19939;-76
2021/11/17 05:30:48;;;;;;;;;;;5.60;99.90;;;;;;4351086;47;19939;-75
2021/11/17 05:34:51;;;;;;;;;;;5.60;99.90;;;;;;4351243;54;20089;-76
2021/11/17 05:39:04;;;;;;;;;;;5.80;99.90;;;;;;4351727;39;20543;-75
2021/11/17 05:43:09;;;;;;;;;;;6.00;99.90;;;;;;4350978;54;20794;-75
2021/11/17 05:47:29;;;;;;;;;;;6.00;99.90;;;;;;4351114;54;19977;-76
2021/11/17 05:51:51;;;;;;;;;;;5.80;99.90;;;;;;4350886;54;19954;-75
2021/11/17 05:56:11;;;;;;;;;;;6.10;99.90;;;;;;4352215;54;19966;-75
2021/11/17 06:00:16;;;;;;;;;;;5.90;99.90;;;;;;4354900;39;20803;-75
2021/11/17 06:04:18;;;;;;;;;;;5.90;99.90;;;;;;4352024;47;19947;-76
2021/11/17 06:08:20;;;;;;;;;;;5.90;99.90;;;;;;4352323;54;19950;-75
2021/11/17 06:12:22;;;;;;;;;;;5.90;99.90;;;;;;4352363;54;20662;-76
2021/11/17 06:16:24;;;;;;;;;;;5.80;99.90;;;;;;4351930;54;19946;-77
2021/11/17 06:20:26;;;;;;;;;;;5.70;99.90;;;;;;4352215;47;19938;-76
2021/11/17 06:24:28;;;;;;;;;;;5.90;99.90;;;;;;4352015;54;19939;-76
2021/11/17 06:28:30;;;;;;;;;;;5.90;99.90;;;;;;4352074;47;19950;-76
2021/11/17 06:32:32;;;;;;;;;;;5.90;99.90;;;;;;4351897;47;20659;-75
2021/11/17 06:36:34;;;;;;;;;;;5.50;99.90;;;;;;4352030;54;19943;-76
2021/11/17 06:40:39;;;;;;;;;;;6.10;99.90;;;;;;4351926;54;20271;-75
2021/11/17 06:44:41;;;;;;;;;;;6.00;99.90;;;;;;4351896;54;19942;-75
2021/11/17 06:48:43;;;;;;;;;;;5.90;99.90;;;;;;4352115;46;19926;-75
2021/11/17 06:52:45;;;;;;;;;;;5.50;99.90;;;;;;4351855;51;19939;-76
2021/11/17 06:56:47;;;;;;;;;;;6.00;99.90;;;;;;4351875;47;19939;-76
2021/11/17 07:00:50;;;;;;;;;;;5.70;99.90;;;;;;4351744;54;19939;-76
2021/11/17 07:04:52;;;;;;;;;;;6.20;99.90;;;;;;4352131;54;19942;-76
2021/11/17 07:08:54;;;;;;;;;;;7.10;99.90;;;;;;4351886;54;19951;-76
2021/11/17 07:12:56;;;;;;;;;;;7.90;99.90;;;;;;4352211;54;20030;-76
2021/11/17 07:16:58;;;;;;;;;;;6.00;99.90;;;;;;4351754;47;19923;-76
2021/11/17 07:21:01;;;;;;;;;;;7.40;99.90;;;;;;4351972;46;19991;-76
2021/11/17 07:25:05;;;;;;;;;;;5.80;99.90;;;;;;4360195;39;20549;-76
2021/11/17 07:29:07;;;;;;;;;;;6.10;99.90;;;;;;4351817;54;19949;-76
2021/11/17 07:33:09;;;;;;;;;;;6.10;99.90;;;;;;4352175;47;19923;-76
2021/11/17 07:37:11;;;;;;;;;;;6.30;99.90;;;;;;4351740;47;20600;-76
2021/11/17 07:41:13;;;;;;;;;;;6.40;99.90;;;;;;4353535;39;20888;-75
2021/11/17 07:45:15;;;;;;;;;;;7.30;99.90;;;;;;4350816;54;19934;-75
2021/11/17 07:49:19;;;;;;;;;;;6.50;99.90;;;;;;4350635;47;19939;-76
2021/11/17 07:53:22;;;;;;;;;;;6.20;99.90;;;;;;4351007;47;19942;-76
2021/11/17 07:57:24;;;;;;;;;;;6.30;99.90;;;;;;4350478;46;19938;-77
2021/11/17 08:01:26;;;;;;;;;;;7.70;99.90;;;;;;4350769;54;19942;-76
2021/11/17 08:05:28;;;;;;;;;;;6.40;99.90;;;;;;4350763;54;19964;-76
2021/11/17 08:09:30;;;;;;;;;;;6.60;99.90;;;;;;4350552;47;19938;-76
2021/11/17 08:13:33;;;;;;;;;;;6.40;99.90;;;;;;4350938;54;19950;-76
2021/11/17 08:17:38;;;;;;;;;;;7.00;99.90;;;;;;4349794;47;19947;-76
2021/11/17 08:21:40;;;;;;;;;;;6.70;99.90;;;;;;4350167;47;19945;-76
2021/11/17 08:25:42;;;;;;;;;;;6.60;99.90;;;;;;4350627;54;19950;-75
2021/11/17 08:29:45;;;;;;;;;;;6.50;99.90;;;;;;4350316;47;19945;-77
2021/11/17 08:33:47;;;;;;;;;;;6.40;99.90;;;;;;4350274;47;19950;-77
2021/11/17 08:37:50;;;;;;;;;;;6.40;99.90;;;;;;4350203;47;19946;-76
2021/11/17 08:41:52;;;;;;;;;;;6.70;99.90;;;;;;4350591;54;19950;-76
2021/11/17 08:45:56;;;;;;;;;;;6.10;99.90;;;;;;4350871;54;21040;-78
2021/11/17 08:49:58;;;;;;;;;;;6.40;99.90;;;;;;4350897;54;20007;-77
2021/11/17 08:54:01;;;;;;;;;;;6.20;99.90;;;;;;4351352;54;20070;-76
2021/11/17 08:58:04;;;;;;;;;;;7.40;99.90;;;;;;4351056;54;19970;-76
2021/11/17 09:02:07;;;;;;;;;;;6.30;99.90;;;;;;4351306;47;19939;-76
2021/11/17 09:06:10;;;;;;;;;;;6.70;99.90;;;;;;4350960;54;19965;-76
2021/11/17 09:10:18;;;;;;;;;;;6.00;99.90;;;;;;4351082;54;19943;-76
2021/11/17 09:14:20;;;;;;;;;;;6.40;99.90;;;;;;4351084;54;19939;-77
2021/11/17 09:18:24;;;;;;;;;;;6.40;99.90;;;;;;4351306;47;19945;-76
2021/11/17 09:22:26;;;;;;;;;;;8.30;99.90;;;;;;4351244;54;19966;-76
2021/11/17 09:26:28;;;;;;;;;;;6.10;99.90;;;;;;4351053;47;19939;-77
2021/11/17 09:30:31;;;;;;;;;;;6.40;99.90;;;;;;4351910;54;19950;-76
2021/11/17 09:34:35;;;;;;;;;;;6.50;99.90;;;;;;4352192;47;19923;-76
2021/11/17 09:38:38;;;;;;;;;;;6.40;99.90;;;;;;4350954;46;19938;-76
2021/11/17 09:42:40;;;;;;;;;;;6.50;99.90;;;;;;4351210;54;19950;-78
2021/11/17 09:46:43;;;;;;;;;;;6.50;99.90;;;;;;4351998;47;19945;-75
2021/11/17 09:50:47;;;;;;;;;;;6.50;99.90;;;;;;4352067;54;19942;-75
2021/11/17 09:55:11;;;;;;;;;;;6.80;99.90;;;;;;4352239;47;19946;-76
2021/11/17 09:59:18;;;;;;;;;;;6.70;99.90;;;;;;4351875;47;19946;-76
2021/11/17 10:03:25;;;;;;;;;;;6.70;99.90;;;;;;4352401;54;20001;-76
2021/11/17 10:08:03;;;;;;;;;;;6.60;99.90;;;;;;4351961;47;19950;-76
2021/11/17 10:12:09;;;;;;;;;;;7.60;99.90;;;;;;4351259;54;19949;-76
2021/11/17 10:16:11;;;;;;;;;;;7.10;99.90;;;;;;4351151;51;19946;-77
2021/11/17 10:20:13;;;;;;;;;;;6.90;99.90;;;;;;4351160;54;19967;-77
2021/11/17 10:24:17;;;;;;;;;;;7.00;99.90;;;;;;4350983;47;19938;-77
2021/11/17 10:28:32;;;;;;;;;;;7.00;99.90;;;;;;4351417;54;19949;-76
2021/11/17 10:32:54;;;;;;;;;;;7.20;99.90;;;;;;4353050;39;20645;-77
2021/11/17 10:37:06;;;;;;;;;;;7.10;99.90;;;;;;4351030;47;19939;-76
2021/11/17 10:41:17;;;;;;;;;;;7.30;99.90;;;;;;4350832;54;19927;-76
2021/11/17 10:45:19;;;;;;;;;;;6.70;99.90;;;;;;4351485;54;20054;-76
2021/11/17 10:49:26;;;;;;;;;;;7.40;99.90;;;;;;4351557;47;19938;-76
2021/11/17 10:53:30;;;;;;;;;;;7.40;99.90;;;;;;4351880;54;19950;-76
2021/11/17 10:57:34;;;;;;;;;;;7.60;99.90;;;;;;4351527;54;19943;-77
2021/11/17 11:01:39;;;;;;;;;;;8.50;99.90;;;;;;4351954;54;19967;-76
2021/11/17 11:05:47;;;;;;;;;;;8.00;99.90;;;;;;4351884;51;20794;-76
2021/11/17 11:10:03;;;;;;;;;;;7.60;99.90;;;;;;4352211;54;19942;-76
2021/11/17 11:14:25;;;;;;;;;;;8.00;99.90;;;;;;4352835;39;20652;-76
2021/11/17 11:18:35;;;;;;;;;;;8.40;99.90;;;;;;4352114;54;19946;-76
2021/11/17 11:22:57;;;;;;;;;;;8.30;99.90;;;;;;4352423;54;19942;-76
2021/11/17 11:26:59;;;;;;;;;;;8.20;99.90;;;;;;4352034;54;19950;-76
2021/11/17 11:31:01;;;;;;;;;;;;;;;;;;4352152;54;20001;-76
2021/11/17 11:35:06;;;;;;;;;;;8.50;99.90;;;;;;4352107;47;19947;-76
2021/11/17 11:39:11;;;;;;;;;;;8.50;99.90;;;;;;4351761;47;20809;-76
2021/11/17 11:43:18;;;;;;;;;;;8.40;99.90;;;;;;4351893;51;19942;-77
2021/11/17 11:47:20;;;;;;;;;;;8.90;99.90;;;;;;4351648;54;19950;-76
2021/11/17 11:51:22;;;;;;;;;;;8.80;99.90;;;;;;4353467;39;20571;-77
2021/11/17 11:55:24;;;;;;;;;;;8.60;99.90;;;;;;4351778;54;19954;-77
2021/11/17 11:59:27;;;;;;;;;;;8.70;99.90;;;;;;4351192;54;19950;-76
2021/11/17 12:03:30;;;;;;;;;;;;;;;;;;4351659;54;19950;-76
2021/11/17 12:07:32;;;;;;;;;;;;;;;;;;4350962;47;19945;-76
2021/11/17 12:11:34;;;;;;;;;;;;;;;;;;4350651;54;19943;-76
2021/11/17 12:15:39;;;;;;;;;;;9.20;99.90;;;;;;4350756;47;19946;-76
2021/11/17 12:19:48;;;;;;;;;;;9.30;99.90;;;;;;4350648;54;19958;-75
2021/11/17 12:24:09;;;;;;;;;;;9.50;99.90;;;;;;4350664;47;19946;-76
2021/11/17 12:28:13;;;;;;;;;;;9.50;99.90;;;;;;4350331;54;19943;-76
2021/11/17 12:32:29;;;;;;;;;;;9.60;99.90;;;;;;4350445;54;20623;-76
2021/11/17 12:36:33;;;;;;;;;;;9.50;99.90;;;;;;4350583;54;19958;-76
2021/11/17 12:40:35;;;;;;;;;;;9.80;99.90;;;;;;4350732;54;19962;-76
2021/11/17 12:44:42;;;;;;;;;;;9.80;99.90;;;;;;4350604;54;19943;-76
2021/11/17 12:48:50;;;;;;;;;;;10.20;99.90;;;;;;4350331;54;20894;-76
2021/11/17 12:53:14;;;;;;;;;;;10.30;99.90;;;;;;4350023;47;20399;-76
2021/11/17 12:57:36;;;;;;;;;;;9.80;99.90;;;;;;4349201;47;19987;-75
2021/11/17 13:01:40;;;;;;;;;;;10.20;99.90;;;;;;4348017;54;19942;-76
2021/11/17 13:05:43;;;;;;;;;;;;;;;;;;4351679;39;20630;-76
2021/11/17 13:09:45;;;;;;;;;;;9.90;99.90;;;;;;4351533;46;19938;-75
2021/11/17 13:13:51;;;;;;;;;;;9.20;99.90;;;;;;4352530;39;20665;-76
2021/11/17 13:17:53;;;;;;;;;;;9.70;99.90;;;;;;4351625;47;19946;-75
2021/11/17 13:21:57;;;;;;;;;;;9.70;99.90;;;;;;4351322;47;19938;-76
2021/11/17 13:26:10;;;;;;;;;;;9.70;99.90;;;;;;4352437;39;20973;-76
2021/11/17 13:30:18;;;;;;;;;;;9.60;99.90;;;;;;4351291;54;20588;-75
2021/11/17 13:34:41;;;;;;;;;;;9.80;99.90;;;;;;4351379;54;19946;-75
2021/11/17 13:38:53;;;;;;;;;;;10.10;99.90;;;;;;4351358;46;21293;-77
2021/11/17 13:43:12;;;;;;;;;;;;;;;;;;4351390;54;19973;-76
2021/11/17 13:47:15;;;;;;;;;;;9.60;99.90;;;;;;4351303;54;19942;-76
2021/11/17 13:51:19;;;;;;;;;;;9.50;99.90;;;;;;4351548;54;19946;-76
2021/11/17 13:55:22;;;;;;;;;;;9.30;99.90;;;;;;4351323;54;19946;-75
2021/11/17 13:59:24;;;;;;;;;;;9.50;99.90;;;;;;4351595;54;19950;-76
2021/11/17 14:03:26;;;;;;;;;;;9.20;99.90;;;;;;4351220;46;23195;-76
2021/11/17 14:07:31;;;;;;;;;;;9.30;99.90;;;;;;4351400;54;19942;-75
2021/11/17 14:11:34;;;;;;;;;;;9.40;99.90;;;;;;4351150;47;19945;-75
2021/11/17 14:15:36;;;;;;;;;;;9.30;99.90;;;;;;4350922;46;19942;-76
2021/11/17 14:19:38;;;;;;;;;;;9.20;99.90;;;;;;4351097;54;20674;-76
2021/11/17 14:23:40;;;;;;;;;;;9.30;99.90;;;;;;4351200;46;19974;-76
2021/11/17 14:27:43;;;;;;;;;;;9.10;99.90;;;;;;4351147;47;19939;-75
2021/11/17 14:31:47;;;;;;;;;;;9.10;99.90;;;;;;4351020;54;19950;-75
2021/11/17 14:35:49;;;;;;;;;;;9.10;99.90;;;;;;4351086;54;20563;-75
2021/11/17 14:39:51;;;;;;;;;;;8.90;99.90;;;;;;4351100;46;19950;-76
2021/11/17 14:43:53;;;;;;;;;;;8.90;99.90;;;;;;4351251;54;19942;-76
2021/11/17 14:47:55;;;;;;;;;;;;;;;;;;4355903;39;20845;-75
2021/11/17 14:52:05;;;;;;;;;;;9.00;99.90;;;;;;4351015;47;19972;-75
2021/11/17 14:56:08;;;;;;;;;;;8.80;99.90;;;;;;4350678;54;19946;-75
2021/11/17 15:00:11;;;;;;;;;;;8.60;99.90;;;;;;4351164;54;20726;-75
2021/11/17 15:04:14;;;;;;;;;;;8.70;99.90;;;;;;4351338;46;19938;-75
2021/11/17 15:08:16;;;;;;;;;;;8.50;99.90;;;;;;4351308;54;19942;-75
2021/11/17 15:12:20;;;;;;;;;;;8.50;99.90;;;;;;4351222;54;19949;-75
2021/11/17 15:16:22;;;;;;;;;;;8.50;99.90;;;;;;4351529;54;19926;-75
2021/11/17 15:20:25;;;;;;;;;;;8.30;99.90;;;;;;4351223;54;20006;-75
2021/11/17 15:24:33;;;;;;;;;;;8.40;99.90;;;;;;4351093;46;19942;-76
2021/11/17 15:28:51;;;;;;;;;;;8.20;99.90;;;;;;4350072;54;19945;-76
2021/11/17 15:32:54;;;;;;;;;;;8.30;99.90;;;;;;4350818;54;20066;-75
2021/11/17 15:36:56;;;;;;;;;;;8.30;99.90;;;;;;4350995;54;19970;-76
2021/11/17 15:40:59;;;;;;;;;;;8.20;99.90;;;;;;4351006;54;19945;-75
2021/11/17 15:45:02;;;;;;;;;;;;;;;;;;4350857;54;20859;-75
2021/11/17 15:49:05;;;;;;;;;;;8.20;99.90;;;;;;4350291;46;19939;-76
2021/11/17 15:53:07;;;;;;;;;;;8.20;99.90;;;;;;4350307;54;19965;-75
2021/11/17 15:57:09;;;;;;;;;;;8.10;99.90;;;;;;4350711;54;19943;-76
2021/11/17 16:01:17;;;;;;;;;;;8.20;99.90;;;;;;4350443;46;19938;-75
2021/11/17 16:05:20;;;;;;;;;;;;;;;;;;4350457;54;21057;-75
2021/11/17 16:09:30;;;;;;;;;;;8.20;99.90;;;;;;4349833;54;19966;-75
2021/11/17 16:13:33;;;;;;;;;;;8.20;99.90;;;;;;4350341;47;19946;-75
2021/11/17 16:17:38;;;;;;;;;;;8.00;99.90;;;;;;4350704;54;19954;-75
2021/11/17 16:21:41;;;;;;;;;;;8.10;99.90;;;;;;4350621;54;19942;-75
2021/11/17 16:25:45;;;;;;;;;;;8.10;99.90;;;;;;4350163;47;19966;-76
2021/11/17 16:29:48;;;;;;;;;;;;;;;;;;4350550;47;21098;-75
2021/11/17 16:33:51;;;;;;;;;;;;;;;;;;4350340;47;19942;-75
2021/11/17 16:37:58;;;;;;;;;;;8.00;99.90;;;;;;4352193;39;20545;-77
2021/11/17 16:42:00;;;;;;;;;;;8.20;99.90;;;;;;4350371;54;20003;-76
2021/11/17 16:46:03;;;;;;;;;;;7.70;99.90;;;;;;4350004;54;19939;-76
2021/11/17 16:50:06;;;;;;;;;;;7.90;99.90;;;;;;4350352;54;19950;-75
2021/11/17 16:54:08;;;;;;;;;;;7.80;99.90;;;;;;4350323;54;19950;-75
2021/11/17 16:58:14;;;;;;;;;;;7.90;99.90;;;;;;4350014;54;19942;-76
2021/11/17 17:02:21;;;;;;;;;;;8.00;99.90;;;;;;4350515;54;19949;-77
2021/11/17 17:06:26;;;;;;;;;;;7.30;99.90;;;;;;4350183;54;19942;-75
2021/11/17 17:10:28;;;;;;;;;;;7.60;99.90;;;;;;4350164;54;19973;-76
2021/11/17 17:14:30;;;;;;;;;;;7.70;99.90;;;;;;4350398;54;19943;-75
2021/11/17 17:18:32;;;;;;;;;;;7.60;99.90;;;;;;4351034;54;19942;-74
2021/11/17 17:22:34;;;;;;;;;;;7.60;99.90;;;;;;4351617;54;19974;-75
2021/11/17 17:26:36;;;;;;;;;;;7.30;99.90;;;;;;4350172;47;19923;-76
2021/11/17 17:30:38;;;;;;;;;;;7.30;99.90;;;;;;4350661;54;19954;-75
2021/11/17 17:34:40;;;;;;;;;;;7.40;99.90;;;;;;4350603;54;19942;-76
2021/11/17 17:38:43;;;;;;;;;;;7.30;99.90;;;;;;4349996;47;19950;-75
2021/11/17 17:42:45;;;;;;;;;;;7.50;99.90;;;;;;4350226;54;19943;-75
